Main page
METAR-TAF:

METAR-TAF

Airports :

Farnborough Airport

Farnborough, England

latitude: 51-17N, longitude: 000-46W, elevation: 65 m

Current weather observation

The report was made 31 minutes ago, at 18:50 UTC
Wind 10 kt from the East
Temperature 18°C
Humidity 59%
Pressure 1021 hPa
Visibility 10 km or more

METAR: EGLF 191850Z AUTO 09010KT 9999 NCD 18/10 Q1021

Time: 20:21 (19:21 UTC)

Forecast

The report was made 2 hours and 25 minutes ago, at 16:56 UTC
Forecast valid from 19 at 18 UTC to 19 at 21 UTC
Wind 8 kt from the East/Northeast
Visibility 10 km or more
Few clouds at a height of 4500 ft

TAF: EGLF 191656Z 1918/1921 07008KT 9999 FEW045

Weather observations and forecasts of more than 4000 airports (METAR and TAF reports).

The available stations are represented by yellow and red dots on the map.

Hover mouse over dot to see the name of the station.

Then click to see weather observations and forecasts.

To change the map : click on the green buttons with a black cross to zoom in, on the green button with a dash to zoom out, or on the green arrows for adjacent maps.


METAR-TAF: